sensor_id;sensor_type;location;lat;lon;timestamp;P1;durP1;ratioP1;P2;durP2;ratioP2
5742;SDS011;2896;53.500;10.020;2023-05-19T00:02:00;14.40;;;5.27;;
5742;SDS011;2896;53.500;10.020;2023-05-19T00:04:29;12.20;;;4.47;;
5742;SDS011;2896;53.500;10.020;2023-05-19T00:06:59;4.93;;;4.00;;
5742;SDS011;2896;53.500;10.020;2023-05-19T00:09:26;7.33;;;4.23;;
5742;SDS011;2896;53.500;10.020;2023-05-19T00:11:54;4.30;;;3.90;;
5742;SDS011;2896;53.500;10.020;2023-05-19T00:14:21;7.90;;;4.20;;
5742;SDS011;2896;53.500;10.020;2023-05-19T00:16:48;4.03;;;3.63;;
5742;SDS011;2896;53.500;10.020;2023-05-19T00:19:15;9.83;;;4.60;;
5742;SDS011;2896;53.500;10.020;2023-05-19T00:21:42;11.83;;;4.40;;
5742;SDS011;2896;53.500;10.020;2023-05-19T00:24:10;4.60;;;3.90;;
5742;SDS011;2896;53.500;10.020;2023-05-19T00:26:37;8.70;;;4.40;;
5742;SDS011;2896;53.500;10.020;2023-05-19T00:29:04;7.37;;;3.97;;
5742;SDS011;2896;53.500;10.020;2023-05-19T00:31:30;4.13;;;3.73;;
5742;SDS011;2896;53.500;10.020;2023-05-19T00:33:58;5.93;;;3.80;;
5742;SDS011;2896;53.500;10.020;2023-05-19T00:36:25;4.00;;;3.57;;
5742;SDS011;2896;53.500;10.020;2023-05-19T00:38:52;6.33;;;3.80;;
5742;SDS011;2896;53.500;10.020;2023-05-19T00:41:21;3.63;;;3.33;;
5742;SDS011;2896;53.500;10.020;2023-05-19T00:43:48;10.70;;;3.63;;
5742;SDS011;2896;53.500;10.020;2023-05-19T00:46:15;7.83;;;3.83;;
5742;SDS011;2896;53.500;10.020;2023-05-19T00:48:42;8.60;;;4.30;;
5742;SDS011;2896;53.500;10.020;2023-05-19T00:51:09;5.73;;;3.53;;
5742;SDS011;2896;53.500;10.020;2023-05-19T00:53:40;5.73;;;3.80;;
5742;SDS011;2896;53.500;10.020;2023-05-19T00:56:07;4.90;;;3.60;;
5742;SDS011;2896;53.500;10.020;2023-05-19T00:58:36;5.10;;;3.63;;
5742;SDS011;2896;53.500;10.020;2023-05-19T01:01:03;4.10;;;3.80;;
5742;SDS011;2896;53.500;10.020;2023-05-19T01:03:32;10.77;;;4.07;;
5742;SDS011;2896;53.500;10.020;2023-05-19T01:06:00;10.00;;;4.03;;
5742;SDS011;2896;53.500;10.020;2023-05-19T01:08:29;6.80;;;3.60;;
5742;SDS011;2896;53.500;10.020;2023-05-19T01:10:57;6.17;;;3.87;;
5742;SDS011;2896;53.500;10.020;2023-05-19T01:13:23;7.00;;;3.90;;
5742;SDS011;2896;53.500;10.020;2023-05-19T01:15:55;10.40;;;4.23;;
5742;SDS011;2896;53.500;10.020;2023-05-19T01:18:28;4.33;;;4.03;;
5742;SDS011;2896;53.500;10.020;2023-05-19T01:21:05;6.53;;;4.37;;
5742;SDS011;2896;53.500;10.020;2023-05-19T01:23:48;6.83;;;3.93;;
5742;SDS011;2896;53.500;10.020;2023-05-19T01:26:34;13.23;;;4.33;;
5742;SDS011;2896;53.500;10.020;2023-05-19T01:29:26;6.60;;;4.30;;
5742;SDS011;2896;53.500;10.020;2023-05-19T01:31:59;11.07;;;4.10;;
5742;SDS011;2896;53.500;10.020;2023-05-19T01:34:27;7.33;;;4.73;;
5742;SDS011;2896;53.500;10.020;2023-05-19T01:36:55;13.17;;;5.17;;
5742;SDS011;2896;53.500;10.020;2023-05-19T01:39:25;12.50;;;5.00;;
5742;SDS011;2896;53.500;10.020;2023-05-19T01:41:53;10.23;;;4.70;;
5742;SDS011;2896;53.500;10.020;2023-05-19T01:44:20;11.73;;;5.60;;
5742;SDS011;2896;53.500;10.020;2023-05-19T01:46:48;9.00;;;5.33;;
5742;SDS011;2896;53.500;10.020;2023-05-19T01:49:16;6.83;;;4.77;;
5742;SDS011;2896;53.500;10.020;2023-05-19T01:51:43;10.43;;;4.70;;
5742;SDS011;2896;53.500;10.020;2023-05-19T01:54:09;14.83;;;4.63;;
5742;SDS011;2896;53.500;10.020;2023-05-19T01:56:37;16.30;;;5.30;;
5742;SDS011;2896;53.500;10.020;2023-05-19T01:59:12;10.07;;;4.70;;
5742;SDS011;2896;53.500;10.020;2023-05-19T02:01:50;6.80;;;4.50;;
5742;SDS011;2896;53.500;10.020;2023-05-19T02:04:31;5.93;;;4.80;;
5742;SDS011;2896;53.500;10.020;2023-05-19T02:07:08;11.20;;;5.17;;
5742;SDS011;2896;53.500;10.020;2023-05-19T02:09:39;7.87;;;4.37;;
5742;SDS011;2896;53.500;10.020;2023-05-19T02:12:18;8.60;;;4.43;;
5742;SDS011;2896;53.500;10.020;2023-05-19T02:14:49;10.97;;;4.80;;
5742;SDS011;2896;53.500;10.020;2023-05-19T02:17:19;5.97;;;4.63;;
5742;SDS011;2896;53.500;10.020;2023-05-19T02:19:53;6.47;;;4.27;;
5742;SDS011;2896;53.500;10.020;2023-05-19T02:22:19;6.93;;;4.97;;
5742;SDS011;2896;53.500;10.020;2023-05-19T02:24:46;9.40;;;4.70;;
5742;SDS011;2896;53.500;10.020;2023-05-19T02:27:15;6.23;;;5.03;;
5742;SDS011;2896;53.500;10.020;2023-05-19T02:29:42;7.47;;;4.60;;
5742;SDS011;2896;53.500;10.020;2023-05-19T02:32:09;7.67;;;4.83;;
5742;SDS011;2896;53.500;10.020;2023-05-19T02:34:36;8.30;;;4.87;;
5742;SDS011;2896;53.500;10.020;2023-05-19T02:37:04;7.13;;;4.87;;
5742;SDS011;2896;53.500;10.020;2023-05-19T02:39:31;6.93;;;4.53;;
5742;SDS011;2896;53.500;10.020;2023-05-19T02:41:59;11.67;;;5.67;;
5742;SDS011;2896;53.500;10.020;2023-05-19T02:44:25;7.47;;;5.20;;
5742;SDS011;2896;53.500;10.020;2023-05-19T02:46:52;9.73;;;5.57;;
5742;SDS011;2896;53.500;10.020;2023-05-19T02:49:19;6.87;;;5.10;;
5742;SDS011;2896;53.500;10.020;2023-05-19T02:51:45;10.93;;;4.60;;
5742;SDS011;2896;53.500;10.020;2023-05-19T02:54:13;6.37;;;4.63;;
5742;SDS011;2896;53.500;10.020;2023-05-19T02:56:40;8.40;;;5.40;;
5742;SDS011;2896;53.500;10.020;2023-05-19T02:59:07;12.27;;;5.30;;
5742;SDS011;2896;53.500;10.020;2023-05-19T03:01:33;6.53;;;5.00;;
5742;SDS011;2896;53.500;10.020;2023-05-19T03:04:01;8.73;;;5.00;;
5742;SDS011;2896;53.500;10.020;2023-05-19T03:06:28;9.30;;;5.10;;
5742;SDS011;2896;53.500;10.020;2023-05-19T03:08:56;6.60;;;5.03;;
5742;SDS011;2896;53.500;10.020;2023-05-19T03:11:24;9.20;;;5.47;;
5742;SDS011;2896;53.500;10.020;2023-05-19T03:13:51;8.97;;;5.30;;
5742;SDS011;2896;53.500;10.020;2023-05-19T03:16:18;16.17;;;6.37;;
5742;SDS011;2896;53.500;10.020;2023-05-19T03:18:45;12.43;;;5.60;;
5742;SDS011;2896;53.500;10.020;2023-05-19T03:21:12;11.20;;;5.20;;
5742;SDS011;2896;53.500;10.020;2023-05-19T03:23:39;8.37;;;5.37;;
5742;SDS011;2896;53.500;10.020;2023-05-19T03:26:05;9.20;;;4.93;;
5742;SDS011;2896;53.500;10.020;2023-05-19T03:28:33;22.63;;;5.30;;
5742;SDS011;2896;53.500;10.020;2023-05-19T03:31:00;14.93;;;6.30;;
5742;SDS011;2896;53.500;10.020;2023-05-19T03:33:26;9.30;;;5.13;;
5742;SDS011;2896;53.500;10.020;2023-05-19T03:35:53;16.77;;;6.37;;
5742;SDS011;2896;53.500;10.020;2023-05-19T03:38:21;9.87;;;5.30;;
5742;SDS011;2896;53.500;10.020;2023-05-19T03:40:48;11.07;;;6.13;;
5742;SDS011;2896;53.500;10.020;2023-05-19T03:43:15;14.87;;;6.13;;
5742;SDS011;2896;53.500;10.020;2023-05-19T03:45:43;11.17;;;7.50;;
5742;SDS011;2896;53.500;10.020;2023-05-19T03:48:10;12.17;;;5.43;;
5742;SDS011;2896;53.500;10.020;2023-05-19T03:50:36;11.80;;;5.73;;
5742;SDS011;2896;53.500;10.020;2023-05-19T03:53:03;19.57;;;6.00;;
5742;SDS011;2896;53.500;10.020;2023-05-19T03:55:30;13.83;;;5.20;;
5742;SDS011;2896;53.500;10.020;2023-05-19T03:57:56;15.80;;;6.20;;
5742;SDS011;2896;53.500;10.020;2023-05-19T04:00:23;15.47;;;6.30;;
5742;SDS011;2896;53.500;10.020;2023-05-19T04:02:51;10.83;;;6.03;;
5742;SDS011;2896;53.500;10.020;2023-05-19T04:05:18;17.03;;;6.10;;
5742;SDS011;2896;53.500;10.020;2023-05-19T04:07:44;9.70;;;5.53;;
5742;SDS011;2896;53.500;10.020;2023-05-19T04:10:11;17.80;;;5.50;;
5742;SDS011;2896;53.500;10.020;2023-05-19T04:12:38;17.20;;;6.20;;
5742;SDS011;2896;53.500;10.020;2023-05-19T04:15:05;11.43;;;6.20;;
5742;SDS011;2896;53.500;10.020;2023-05-19T04:17:35;11.10;;;6.20;;
5742;SDS011;2896;53.500;10.020;2023-05-19T04:20:03;8.47;;;5.13;;
5742;SDS011;2896;53.500;10.020;2023-05-19T04:22:31;5.97;;;5.00;;
5742;SDS011;2896;53.500;10.020;2023-05-19T04:24:57;14.30;;;6.77;;
5742;SDS011;2896;53.500;10.020;2023-05-19T04:27:24;13.70;;;7.50;;
5742;SDS011;2896;53.500;10.020;2023-05-19T04:29:51;16.43;;;6.73;;
5742;SDS011;2896;53.500;10.020;2023-05-19T04:32:18;17.10;;;6.57;;
5742;SDS011;2896;53.500;10.020;2023-05-19T04:34:46;23.60;;;7.30;;
5742;SDS011;2896;53.500;10.020;2023-05-19T04:37:14;22.33;;;6.60;;
5742;SDS011;2896;53.500;10.020;2023-05-19T04:39:41;14.57;;;6.27;;
5742;SDS011;2896;53.500;10.020;2023-05-19T04:42:09;24.73;;;6.70;;
5742;SDS011;2896;53.500;10.020;2023-05-19T04:44:36;11.63;;;5.47;;
5742;SDS011;2896;53.500;10.020;2023-05-19T04:47:04;17.87;;;6.90;;
5742;SDS011;2896;53.500;10.020;2023-05-19T04:49:32;11.10;;;5.10;;
5742;SDS011;2896;53.500;10.020;2023-05-19T04:52:03;11.10;;;5.40;;
5742;SDS011;2896;53.500;10.020;2023-05-19T04:54:32;11.40;;;6.40;;
5742;SDS011;2896;53.500;10.020;2023-05-19T04:56:59;8.73;;;5.27;;
5742;SDS011;2896;53.500;10.020;2023-05-19T04:59:26;21.30;;;6.03;;
5742;SDS011;2896;53.500;10.020;2023-05-19T05:01:53;20.37;;;5.97;;
5742;SDS011;2896;53.500;10.020;2023-05-19T05:04:20;11.87;;;5.47;;
5742;SDS011;2896;53.500;10.020;2023-05-19T05:06:46;8.10;;;4.77;;
5742;SDS011;2896;53.500;10.020;2023-05-19T05:09:13;16.60;;;6.20;;
5742;SDS011;2896;53.500;10.020;2023-05-19T05:11:41;9.57;;;5.17;;
5742;SDS011;2896;53.500;10.020;2023-05-19T05:14:08;8.87;;;4.90;;
5742;SDS011;2896;53.500;10.020;2023-05-19T05:16:36;10.73;;;4.97;;
5742;SDS011;2896;53.500;10.020;2023-05-19T05:19:03;17.80;;;5.93;;
5742;SDS011;2896;53.500;10.020;2023-05-19T05:21:30;13.67;;;6.00;;
5742;SDS011;2896;53.500;10.020;2023-05-19T05:23:57;16.00;;;5.37;;
5742;SDS011;2896;53.500;10.020;2023-05-19T05:26:25;14.87;;;5.60;;
5742;SDS011;2896;53.500;10.020;2023-05-19T05:28:56;10.43;;;4.90;;
5742;SDS011;2896;53.500;10.020;2023-05-19T05:31:23;13.90;;;5.57;;
5742;SDS011;2896;53.500;10.020;2023-05-19T05:33:49;12.13;;;4.60;;
5742;SDS011;2896;53.500;10.020;2023-05-19T05:36:16;13.63;;;4.87;;
5742;SDS011;2896;53.500;10.020;2023-05-19T05:38:43;25.67;;;5.70;;
5742;SDS011;2896;53.500;10.020;2023-05-19T05:41:10;11.63;;;5.37;;
5742;SDS011;2896;53.500;10.020;2023-05-19T05:43:37;16.73;;;4.73;;
5742;SDS011;2896;53.500;10.020;2023-05-19T05:46:05;7.37;;;4.30;;
5742;SDS011;2896;53.500;10.020;2023-05-19T05:48:32;8.67;;;4.30;;
5742;SDS011;2896;53.500;10.020;2023-05-19T05:50:59;7.90;;;4.23;;
5742;SDS011;2896;53.500;10.020;2023-05-19T05:53:27;15.17;;;4.90;;
5742;SDS011;2896;53.500;10.020;2023-05-19T05:55:56;12.13;;;4.80;;
5742;SDS011;2896;53.500;10.020;2023-05-19T05:58:23;16.83;;;5.00;;
5742;SDS011;2896;53.500;10.020;2023-05-19T06:00:50;8.00;;;3.73;;
5742;SDS011;2896;53.500;10.020;2023-05-19T06:03:20;13.70;;;4.27;;
5742;SDS011;2896;53.500;10.020;2023-05-19T06:05:48;10.97;;;3.80;;
5742;SDS011;2896;53.500;10.020;2023-05-19T06:08:14;11.80;;;4.20;;
5742;SDS011;2896;53.500;10.020;2023-05-19T06:10:41;9.87;;;3.90;;
5742;SDS011;2896;53.500;10.020;2023-05-19T06:13:08;8.83;;;4.57;;
5742;SDS011;2896;53.500;10.020;2023-05-19T06:15:35;13.07;;;5.17;;
5742;SDS011;2896;53.500;10.020;2023-05-19T06:18:01;13.20;;;4.20;;
5742;SDS011;2896;53.500;10.020;2023-05-19T06:20:29;12.73;;;4.37;;
5742;SDS011;2896;53.500;10.020;2023-05-19T06:22:56;10.30;;;4.20;;
5742;SDS011;2896;53.500;10.020;2023-05-19T06:25:22;5.60;;;3.53;;
5742;SDS011;2896;53.500;10.020;2023-05-19T06:27:49;8.77;;;3.43;;
5742;SDS011;2896;53.500;10.020;2023-05-19T06:30:16;9.80;;;4.60;;
5742;SDS011;2896;53.500;10.020;2023-05-19T06:32:42;9.80;;;4.50;;
5742;SDS011;2896;53.500;10.020;2023-05-19T06:35:10;19.40;;;4.10;;
5742;SDS011;2896;53.500;10.020;2023-05-19T06:37:38;22.33;;;5.03;;
5742;SDS011;2896;53.500;10.020;2023-05-19T06:40:05;10.63;;;3.83;;
5742;SDS011;2896;53.500;10.020;2023-05-19T06:42:32;13.43;;;3.80;;
5742;SDS011;2896;53.500;10.020;2023-05-19T06:44:59;14.87;;;3.93;;
5742;SDS011;2896;53.500;10.020;2023-05-19T06:47:26;5.73;;;2.90;;
5742;SDS011;2896;53.500;10.020;2023-05-19T06:49:52;15.27;;;4.40;;
5742;SDS011;2896;53.500;10.020;2023-05-19T06:52:19;10.23;;;4.17;;
5742;SDS011;2896;53.500;10.020;2023-05-19T06:54:48;9.07;;;3.63;;
5742;SDS011;2896;53.500;10.020;2023-05-19T06:57:14;5.50;;;3.20;;
5742;SDS011;2896;53.500;10.020;2023-05-19T06:59:41;10.63;;;4.60;;
5742;SDS011;2896;53.500;10.020;2023-05-19T07:02:10;7.23;;;3.50;;
5742;SDS011;2896;53.500;10.020;2023-05-19T07:04:37;18.13;;;4.10;;
5742;SDS011;2896;53.500;10.020;2023-05-19T07:07:04;10.83;;;3.70;;
5742;SDS011;2896;53.500;10.020;2023-05-19T07:09:30;8.20;;;2.60;;
5742;SDS011;2896;53.500;10.020;2023-05-19T07:11:58;9.33;;;3.73;;
5742;SDS011;2896;53.500;10.020;2023-05-19T07:14:25;9.97;;;3.27;;
5742;SDS011;2896;53.500;10.020;2023-05-19T07:16:52;6.30;;;2.77;;
5742;SDS011;2896;53.500;10.020;2023-05-19T07:19:18;13.10;;;3.50;;
5742;SDS011;2896;53.500;10.020;2023-05-19T07:21:45;8.17;;;2.80;;
5742;SDS011;2896;53.500;10.020;2023-05-19T07:24:12;8.10;;;3.10;;
5742;SDS011;2896;53.500;10.020;2023-05-19T07:26:38;10.93;;;3.20;;
5742;SDS011;2896;53.500;10.020;2023-05-19T07:29:07;8.93;;;3.67;;
5742;SDS011;2896;53.500;10.020;2023-05-19T07:31:34;11.70;;;3.70;;
5742;SDS011;2896;53.500;10.020;2023-05-19T07:34:01;8.73;;;3.50;;
5742;SDS011;2896;53.500;10.020;2023-05-19T07:36:28;9.33;;;3.20;;
5742;SDS011;2896;53.500;10.020;2023-05-19T07:38:55;9.13;;;2.97;;
5742;SDS011;2896;53.500;10.020;2023-05-19T07:41:21;15.70;;;3.70;;
5742;SDS011;2896;53.500;10.020;2023-05-19T07:43:48;10.30;;;2.70;;
5742;SDS011;2896;53.500;10.020;2023-05-19T07:46:16;9.77;;;3.30;;
5742;SDS011;2896;53.500;10.020;2023-05-19T07:48:43;12.07;;;3.17;;
5742;SDS011;2896;53.500;10.020;2023-05-19T07:51:09;11.07;;;3.47;;
5742;SDS011;2896;53.500;10.020;2023-05-19T07:53:37;5.73;;;2.90;;
5742;SDS011;2896;53.500;10.020;2023-05-19T07:56:04;8.60;;;3.17;;
5742;SDS011;2896;53.500;10.020;2023-05-19T07:58:31;6.20;;;2.60;;
5742;SDS011;2896;53.500;10.020;2023-05-19T08:00:57;7.43;;;3.03;;
5742;SDS011;2896;53.500;10.020;2023-05-19T08:03:26;9.50;;;3.20;;
5742;SDS011;2896;53.500;10.020;2023-05-19T08:05:52;4.70;;;2.33;;
5742;SDS011;2896;53.500;10.020;2023-05-19T08:08:19;5.13;;;2.77;;
5742;SDS011;2896;53.500;10.020;2023-05-19T08:10:46;9.53;;;3.40;;
5742;SDS011;2896;53.500;10.020;2023-05-19T08:13:12;8.60;;;3.03;;
5742;SDS011;2896;53.500;10.020;2023-05-19T08:15:39;6.13;;;2.77;;
5742;SDS011;2896;53.500;10.020;2023-05-19T08:18:06;7.83;;;2.67;;
5742;SDS011;2896;53.500;10.020;2023-05-19T08:20:34;9.30;;;2.50;;
5742;SDS011;2896;53.500;10.020;2023-05-19T08:23:01;8.60;;;2.87;;
5742;SDS011;2896;53.500;10.020;2023-05-19T08:25:28;6.10;;;3.13;;
5742;SDS011;2896;53.500;10.020;2023-05-19T08:27:54;8.40;;;2.80;;
5742;SDS011;2896;53.500;10.020;2023-05-19T08:30:21;9.30;;;2.97;;
5742;SDS011;2896;53.500;10.020;2023-05-19T08:32:48;7.63;;;3.03;;
5742;SDS011;2896;53.500;10.020;2023-05-19T08:35:14;8.33;;;2.87;;
5742;SDS011;2896;53.500;10.020;2023-05-19T08:37:42;12.33;;;2.30;;
5742;SDS011;2896;53.500;10.020;2023-05-19T08:40:10;6.53;;;2.83;;
5742;SDS011;2896;53.500;10.020;2023-05-19T08:42:40;6.17;;;3.13;;
5742;SDS011;2896;53.500;10.020;2023-05-19T08:45:07;15.63;;;3.43;;
5742;SDS011;2896;53.500;10.020;2023-05-19T08:47:35;6.70;;;2.50;;
5742;SDS011;2896;53.500;10.020;2023-05-19T08:50:02;13.07;;;3.40;;
5742;SDS011;2896;53.500;10.020;2023-05-19T08:52:34;7.13;;;2.47;;
5742;SDS011;2896;53.500;10.020;2023-05-19T08:55:14;8.30;;;2.80;;
5742;SDS011;2896;53.500;10.020;2023-05-19T08:57:49;10.27;;;2.67;;
5742;SDS011;2896;53.500;10.020;2023-05-19T09:00:17;6.37;;;2.90;;
5742;SDS011;2896;53.500;10.020;2023-05-19T09:02:44;5.90;;;2.53;;
5742;SDS011;2896;53.500;10.020;2023-05-19T09:05:13;7.20;;;2.47;;
5742;SDS011;2896;53.500;10.020;2023-05-19T09:07:41;9.93;;;2.93;;
5742;SDS011;2896;53.500;10.020;2023-05-19T09:10:09;8.80;;;2.60;;
5742;SDS011;2896;53.500;10.020;2023-05-19T09:12:40;5.13;;;2.50;;
5742;SDS011;2896;53.500;10.020;2023-05-19T09:15:09;9.57;;;3.50;;
5742;SDS011;2896;53.500;10.020;2023-05-19T09:17:37;8.47;;;2.57;;
5742;SDS011;2896;53.500;10.020;2023-05-19T09:20:04;6.00;;;2.33;;
5742;SDS011;2896;53.500;10.020;2023-05-19T09:22:39;9.83;;;3.50;;
5742;SDS011;2896;53.500;10.020;2023-05-19T09:25:16;5.90;;;2.83;;
5742;SDS011;2896;53.500;10.020;2023-05-19T09:27:44;7.73;;;2.40;;
5742;SDS011;2896;53.500;10.020;2023-05-19T09:30:12;12.90;;;2.90;;
5742;SDS011;2896;53.500;10.020;2023-05-19T09:32:40;7.60;;;2.13;;
5742;SDS011;2896;53.500;10.020;2023-05-19T09:35:07;5.10;;;2.07;;
5742;SDS011;2896;53.500;10.020;2023-05-19T09:37:34;9.37;;;3.10;;
5742;SDS011;2896;53.500;10.020;2023-05-19T09:40:04;10.07;;;2.80;;
5742;SDS011;2896;53.500;10.020;2023-05-19T09:45:07;3.67;;;2.50;;
5742;SDS011;2896;53.500;10.020;2023-05-19T09:47:34;12.23;;;3.00;;
5742;SDS011;2896;53.500;10.020;2023-05-19T09:50:03;10.20;;;2.47;;
5742;SDS011;2896;53.500;10.020;2023-05-19T09:52:33;10.83;;;2.80;;
5742;SDS011;2896;53.500;10.020;2023-05-19T09:55:01;7.27;;;2.77;;
5742;SDS011;2896;53.500;10.020;2023-05-19T09:57:31;7.03;;;2.47;;
5742;SDS011;2896;53.500;10.020;2023-05-19T09:59:59;4.90;;;2.37;;
5742;SDS011;2896;53.500;10.020;2023-05-19T10:02:35;7.10;;;2.13;;
5742;SDS011;2896;53.500;10.020;2023-05-19T10:05:06;11.47;;;2.70;;
5742;SDS011;2896;53.500;10.020;2023-05-19T10:07:35;4.73;;;2.10;;
5742;SDS011;2896;53.500;10.020;2023-05-19T10:10:02;5.93;;;2.20;;
5742;SDS011;2896;53.500;10.020;2023-05-19T10:12:32;5.87;;;2.50;;
5742;SDS011;2896;53.500;10.020;2023-05-19T10:14:58;5.73;;;2.57;;
5742;SDS011;2896;53.500;10.020;2023-05-19T10:17:25;8.90;;;2.50;;
5742;SDS011;2896;53.500;10.020;2023-05-19T10:19:55;7.57;;;2.30;;
5742;SDS011;2896;53.500;10.020;2023-05-19T10:22:22;5.27;;;2.50;;
5742;SDS011;2896;53.500;10.020;2023-05-19T10:24:48;10.60;;;2.70;;
5742;SDS011;2896;53.500;10.020;2023-05-19T10:27:15;4.10;;;2.10;;
5742;SDS011;2896;53.500;10.020;2023-05-19T10:29:46;7.70;;;3.00;;
5742;SDS011;2896;53.500;10.020;2023-05-19T10:32:15;5.27;;;2.40;;
5742;SDS011;2896;53.500;10.020;2023-05-19T10:34:53;6.57;;;2.50;;
5742;SDS011;2896;53.500;10.020;2023-05-19T10:37:40;5.83;;;2.50;;
5742;SDS011;2896;53.500;10.020;2023-05-19T10:40:11;6.00;;;2.03;;
5742;SDS011;2896;53.500;10.020;2023-05-19T10:42:50;4.90;;;2.33;;
5742;SDS011;2896;53.500;10.020;2023-05-19T10:45:28;6.83;;;2.53;;
5742;SDS011;2896;53.500;10.020;2023-05-19T10:48:01;7.27;;;2.03;;
5742;SDS011;2896;53.500;10.020;2023-05-19T10:50:29;4.97;;;2.07;;
5742;SDS011;2896;53.500;10.020;2023-05-19T10:53:01;12.63;;;2.60;;
5742;SDS011;2896;53.500;10.020;2023-05-19T10:58:10;9.20;;;2.40;;
5742;SDS011;2896;53.500;10.020;2023-05-19T11:00:37;6.20;;;2.57;;
5742;SDS011;2896;53.500;10.020;2023-05-19T11:03:11;3.00;;;2.30;;
5742;SDS011;2896;53.500;10.020;2023-05-19T11:05:40;3.53;;;2.40;;
5742;SDS011;2896;53.500;10.020;2023-05-19T11:08:09;3.53;;;1.87;;
5742;SDS011;2896;53.500;10.020;2023-05-19T11:10:37;6.70;;;2.40;;
5742;SDS011;2896;53.500;10.020;2023-05-19T11:13:04;8.10;;;2.33;;
5742;SDS011;2896;53.500;10.020;2023-05-19T11:15:33;9.00;;;2.70;;
5742;SDS011;2896;53.500;10.020;2023-05-19T11:18:00;5.20;;;2.60;;
5742;SDS011;2896;53.500;10.020;2023-05-19T11:20:28;4.20;;;2.97;;
5742;SDS011;2896;53.500;10.020;2023-05-19T11:23:06;6.23;;;2.10;;
5742;SDS011;2896;53.500;10.020;2023-05-19T11:25:40;6.50;;;2.63;;
5742;SDS011;2896;53.500;10.020;2023-05-19T11:28:08;7.50;;;2.70;;
5742;SDS011;2896;53.500;10.020;2023-05-19T11:30:37;4.83;;;2.27;;
5742;SDS011;2896;53.500;10.020;2023-05-19T11:33:04;6.63;;;2.33;;
5742;SDS011;2896;53.500;10.020;2023-05-19T11:35:32;6.53;;;2.57;;
5742;SDS011;2896;53.500;10.020;2023-05-19T11:37:59;5.27;;;2.07;;
5742;SDS011;2896;53.500;10.020;2023-05-19T11:40:28;5.03;;;2.20;;
5742;SDS011;2896;53.500;10.020;2023-05-19T11:42:55;8.73;;;2.70;;
5742;SDS011;2896;53.500;10.020;2023-05-19T11:45:25;8.13;;;2.30;;
5742;SDS011;2896;53.500;10.020;2023-05-19T11:47:53;3.57;;;2.37;;
5742;SDS011;2896;53.500;10.020;2023-05-19T11:50:20;5.37;;;2.03;;
5742;SDS011;2896;53.500;10.020;2023-05-19T11:52:47;6.10;;;2.17;;
5742;SDS011;2896;53.500;10.020;2023-05-19T11:55:15;17.47;;;3.10;;
5742;SDS011;2896;53.500;10.020;2023-05-19T11:57:50;7.80;;;3.37;;
5742;SDS011;2896;53.500;10.020;2023-05-19T12:00:22;7.40;;;2.87;;
5742;SDS011;2896;53.500;10.020;2023-05-19T12:02:49;2.33;;;2.13;;
5742;SDS011;2896;53.500;10.020;2023-05-19T12:05:19;11.57;;;2.00;;
5742;SDS011;2896;53.500;10.020;2023-05-19T12:07:47;7.93;;;3.70;;
5742;SDS011;2896;53.500;10.020;2023-05-19T12:10:15;16.07;;;2.53;;
5742;SDS011;2896;53.500;10.020;2023-05-19T12:12:44;13.83;;;2.30;;
5742;SDS011;2896;53.500;10.020;2023-05-19T12:15:12;11.13;;;2.70;;
5742;SDS011;2896;53.500;10.020;2023-05-19T12:17:40;7.93;;;2.13;;
5742;SDS011;2896;53.500;10.020;2023-05-19T12:20:07;9.00;;;2.73;;
5742;SDS011;2896;53.500;10.020;2023-05-19T12:22:34;6.90;;;2.40;;
5742;SDS011;2896;53.500;10.020;2023-05-19T12:25:02;7.60;;;2.30;;
5742;SDS011;2896;53.500;10.020;2023-05-19T12:27:30;4.63;;;2.27;;
5742;SDS011;2896;53.500;10.020;2023-05-19T12:30:00;5.83;;;2.20;;
5742;SDS011;2896;53.500;10.020;2023-05-19T12:32:31;5.27;;;2.33;;
5742;SDS011;2896;53.500;10.020;2023-05-19T12:35:00;7.03;;;3.07;;
5742;SDS011;2896;53.500;10.020;2023-05-19T12:37:29;6.90;;;2.17;;
5742;SDS011;2896;53.500;10.020;2023-05-19T12:39:57;7.67;;;7.03;;
5742;SDS011;2896;53.500;10.020;2023-05-19T12:42:25;6.73;;;2.57;;
5742;SDS011;2896;53.500;10.020;2023-05-19T12:44:55;3.77;;;2.00;;
5742;SDS011;2896;53.500;10.020;2023-05-19T12:47:27;2.47;;;2.20;;
5742;SDS011;2896;53.500;10.020;2023-05-19T12:50:00;2.97;;;2.40;;
5742;SDS011;2896;53.500;10.020;2023-05-19T12:52:28;17.87;;;2.70;;
5742;SDS011;2896;53.500;10.020;2023-05-19T12:54:58;7.83;;;2.43;;
5742;SDS011;2896;53.500;10.020;2023-05-19T12:57:25;7.50;;;2.50;;
5742;SDS011;2896;53.500;10.020;2023-05-19T12:59:53;9.50;;;2.70;;
5742;SDS011;2896;53.500;10.020;2023-05-19T13:02:25;6.53;;;2.63;;
5742;SDS011;2896;53.500;10.020;2023-05-19T13:04:53;11.97;;;4.80;;
5742;SDS011;2896;53.500;10.020;2023-05-19T13:07:19;9.30;;;2.10;;
5742;SDS011;2896;53.500;10.020;2023-05-19T13:09:46;9.83;;;2.50;;
5742;SDS011;2896;53.500;10.020;2023-05-19T13:12:13;6.53;;;2.50;;
5742;SDS011;2896;53.500;10.020;2023-05-19T13:14:40;7.83;;;2.77;;
5742;SDS011;2896;53.500;10.020;2023-05-19T13:17:07;8.50;;;2.77;;
5742;SDS011;2896;53.500;10.020;2023-05-19T13:19:34;7.77;;;2.50;;
5742;SDS011;2896;53.500;10.020;2023-05-19T13:22:02;6.03;;;2.97;;
5742;SDS011;2896;53.500;10.020;2023-05-19T13:24:28;18.50;;;9.80;;
5742;SDS011;2896;53.500;10.020;2023-05-19T13:26:55;6.00;;;2.80;;
5742;SDS011;2896;53.500;10.020;2023-05-19T13:29:22;6.93;;;5.10;;
5742;SDS011;2896;53.500;10.020;2023-05-19T13:31:48;10.93;;;2.70;;
5742;SDS011;2896;53.500;10.020;2023-05-19T13:34:15;11.50;;;3.00;;
5742;SDS011;2896;53.500;10.020;2023-05-19T13:36:43;13.87;;;4.30;;
5742;SDS011;2896;53.500;10.020;2023-05-19T13:39:13;5.77;;;2.73;;
5742;SDS011;2896;53.500;10.020;2023-05-19T13:41:39;7.67;;;3.70;;
5742;SDS011;2896;53.500;10.020;2023-05-19T13:44:06;4.67;;;2.43;;
5742;SDS011;2896;53.500;10.020;2023-05-19T13:46:33;3.33;;;2.87;;
5742;SDS011;2896;53.500;10.020;2023-05-19T13:48:59;7.47;;;3.10;;
5742;SDS011;2896;53.500;10.020;2023-05-19T13:51:26;5.93;;;2.60;;
5742;SDS011;2896;53.500;10.020;2023-05-19T13:53:52;7.03;;;2.83;;
5742;SDS011;2896;53.500;10.020;2023-05-19T13:56:20;5.90;;;3.27;;
5742;SDS011;2896;53.500;10.020;2023-05-19T13:58:47;10.10;;;3.20;;
5742;SDS011;2896;53.500;10.020;2023-05-19T14:01:13;7.33;;;3.47;;
5742;SDS011;2896;53.500;10.020;2023-05-19T14:03:40;6.63;;;3.90;;
5742;SDS011;2896;53.500;10.020;2023-05-19T14:06:07;13.80;;;4.87;;
5742;SDS011;2896;53.500;10.020;2023-05-19T14:08:33;4.60;;;2.30;;
5742;SDS011;2896;53.500;10.020;2023-05-19T14:11:00;7.30;;;2.40;;
5742;SDS011;2896;53.500;10.020;2023-05-19T14:13:28;35.70;;;3.53;;
5742;SDS011;2896;53.500;10.020;2023-05-19T14:15:55;4.80;;;3.03;;
5742;SDS011;2896;53.500;10.020;2023-05-19T14:18:21;3.63;;;2.03;;
5742;SDS011;2896;53.500;10.020;2023-05-19T14:20:48;14.27;;;2.60;;
5742;SDS011;2896;53.500;10.020;2023-05-19T14:23:14;4.70;;;1.90;;
5742;SDS011;2896;53.500;10.020;2023-05-19T14:25:41;7.90;;;2.77;;
5742;SDS011;2896;53.500;10.020;2023-05-19T14:28:08;4.40;;;3.27;;
5742;SDS011;2896;53.500;10.020;2023-05-19T14:30:36;9.03;;;2.33;;
5742;SDS011;2896;53.500;10.020;2023-05-19T14:33:03;6.60;;;2.17;;
5742;SDS011;2896;53.500;10.020;2023-05-19T14:35:30;5.17;;;2.40;;
5742;SDS011;2896;53.500;10.020;2023-05-19T14:37:56;10.20;;;5.20;;
5742;SDS011;2896;53.500;10.020;2023-05-19T14:40:23;7.60;;;2.13;;
5742;SDS011;2896;53.500;10.020;2023-05-19T14:42:49;4.77;;;2.30;;
5742;SDS011;2896;53.500;10.020;2023-05-19T14:45:16;8.90;;;1.97;;
5742;SDS011;2896;53.500;10.020;2023-05-19T14:47:44;4.73;;;2.17;;
5742;SDS011;2896;53.500;10.020;2023-05-19T14:50:11;9.03;;;2.43;;
5742;SDS011;2896;53.500;10.020;2023-05-19T14:52:38;6.83;;;2.77;;
5742;SDS011;2896;53.500;10.020;2023-05-19T14:55:05;3.13;;;1.93;;
5742;SDS011;2896;53.500;10.020;2023-05-19T14:57:32;7.27;;;2.80;;
5742;SDS011;2896;53.500;10.020;2023-05-19T14:59:58;5.33;;;2.23;;
5742;SDS011;2896;53.500;10.020;2023-05-19T15:02:25;7.30;;;2.13;;
5742;SDS011;2896;53.500;10.020;2023-05-19T15:04:53;6.57;;;2.27;;
5742;SDS011;2896;53.500;10.020;2023-05-19T15:07:19;3.43;;;2.13;;